Latest Weather Observations for Colpoys Point

IDW60801

Issued at 9:03 pm WST Tuesday 28 January 2020 (issued every 10 minutes, with the page automatically refreshed every 10 minutes)

About weather observations | Map of weather stations | Latest weather observations for WA | Other Formats
Station Details ID: 009255 Name: COLPOYS POINT Lat: -32.23 Lon: 115.70 Height: 3.0 m
Data from the previous 72 hours. | See also: Recent months for locations in Western Australia
Date/Time
WST
Temp
°C
App
Temp
°C
Dew
Point
°C
Rel
Hum
%
Delta-T
°C
Wind Press
QNH
hPa
Press
MSL
hPa
Rain since
9am
mm
Dir  Spd
km/h
Gust
km/h
Spd
kts
Gust
kts
28/09:00pm - - - - - SW 33 39 18 21 - - -
28/08:30pm - - - - - SW 30 39 16 21 - - -
28/08:00pm - - - - - SW 32 39 17 21 - - -
28/07:30pm - - - - - SW 30 35 16 19 - - -
28/07:00pm - - - - - SW 30 35 16 19 - - -
28/06:30pm - - - - - SW 30 35 16 19 - - -
28/06:00pm - - - - - SW 33 41 18 22 - - -
28/05:30pm - - - - - SW 32 37 17 20 - - -
28/05:00pm - - - - - SW 32 41 17 22 - - -
28/04:30pm - - - - - SW 32 41 17 22 - - -
28/04:00pm - - - - - SSW 33 43 18 23 - - -
28/03:30pm - - - - - SW 33 43 18 23 - - -
28/03:00pm - - - - - SW 33 41 18 22 - - -
28/02:30pm - - - - - SW 33 41 18 22 - - -
28/02:00pm - - - - - SW 33 41 18 22 - - -
28/01:30pm - - - - - SW 33 39 18 21 - - -
28/01:00pm - - - - - SW 30 35 16 19 - - -
28/12:30pm - - - - - SSW 26 30 14 16 - - -
28/12:00pm - - - - - SSW 28 33 15 18 - - -
28/11:30am - - - - - SW 26 33 14 18 - - -
28/11:00am - - - - - SSW 22 26 12 14 - - -
28/10:30am - - - - - SW 26 30 14 16 - - -
28/10:00am - - - - - SW 19 20 10 11 - - -
28/09:30am - - - - - SSW 13 17 7 9 - - -
28/09:00am - - - - - S 7 7 4 4 - - -
28/08:30am - - - - - S 7 7 4 4 - - -
28/08:00am - - - - - S 9 9 5 5 - - -
28/07:30am - - - - - S 13 15 7 8 - - -
28/07:00am - - - - - S 15 17 8 9 - - -
28/06:30am - - - - - SSW 13 15 7 8 - - -
28/06:00am - - - - - S 9 11 5 6 - - -
28/05:30am - - - - - S 11 13 6 7 - - -
28/05:00am - - - - - S 13 15 7 8 - - -
28/04:30am - - - - - S 9 11 5 6 - - -
28/04:00am - - - - - SSE 9 11 5 6 - - -
28/03:30am - - - - - SSE 9 11 5 6 - - -
28/03:00am - - - - - SSE 9 9 5 5 - - -
28/02:30am - - - - - SSE 13 13 7 7 - - -
28/02:00am - - - - - S 15 17 8 9 - - -
28/01:30am - - - - - S 17 19 9 10 - - -
28/01:00am - - - - - S 17 19 9 10 - - -
28/12:30am - - - - - SSW 17 20 9 11 - - -
28/12:00am - - - - - SSW 17 19 9 10 - - -
 
Date/Time
WST
Temp
°C
App
Temp
°C
Dew
Point
°C
Rel
Hum
%
Delta-T
°C
Wind Press
QNH
hPa
Press
MSL
hPa
Rain since
9am
mm
Dir  Spd
km/h
Gust
km/h
Spd
kts
Gust
kts
27/11:30pm - - - - - SSW 15 17 8 9 - - -
27/11:00pm - - - - - S 13 15 7 8 - - -
27/10:30pm - - - - - S 13 15 7 8 - - -
27/10:00pm - - - - - SSW 17 19 9 10 - - -
27/09:30pm - - - - - SSW 20 24 11 13 - - -
27/09:00pm - - - - - SSW 19 24 10 13 - - -
27/08:30pm - - - - - SSW 24 28 13 15 - - -
27/08:00pm - - - - - SSW 28 32 15 17 - - -
27/07:30pm - - - - - SSW 28 32 15 17 - - -
27/07:00pm - - - - - SSW 26 32 14 17 - - -
27/06:30pm - - - - - SSW 26 32 14 17 - - -
27/06:00pm - - - - - SSW 26 30 14 16 - - -
27/05:30pm - - - - - SSW 24 30 13 16 - - -
27/05:00pm - - - - - SW 24 32 13 17 - - -
27/04:30pm - - - - - SSW 28 35 15 19 - - -
27/04:00pm - - - - - SSW 28 33 15 18 - - -
27/03:30pm - - - - - SSW 20 28 11 15 - - -
27/03:00pm - - - - - SSW 28 33 15 18 - - -
27/02:30pm - - - - - SW 24 30 13 16 - - -
27/02:00pm - - - - - SW 26 32 14 17 - - -
27/01:30pm - - - - - SW 28 33 15 18 - - -
27/01:00pm - - - - - SW 26 33 14 18 - - -
27/12:30pm - - - - - SW 28 33 15 18 - - -
27/12:00pm - - - - - SW 26 32 14 17 - - -
27/11:30am - - - - - SW 24 28 13 15 - - -
27/11:00am - - - - - SW 20 26 11 14 - - -
27/10:30am - - - - - SW 20 26 11 14 - - -
27/10:00am - - - - - SW 19 22 10 12 - - -
27/09:30am - - - - - SE 7 9 4 5 - - -
27/09:00am - - - - - SE 7 9 4 5 - - -
27/08:30am - - - - - ENE 2 7 1 4 - - -
27/08:00am - - - - - E 13 17 7 9 - - -
27/07:30am - - - - - ESE 13 15 7 8 - - -
27/07:00am - - - - - ESE 15 19 8 10 - - -
27/06:30am - - - - - ESE 15 20 8 11 - - -
27/06:00am - - - - - SE 13 17 7 9 - - -
27/05:30am - - - - - ESE 19 26 10 14 - - -
27/05:00am - - - - - ESE 19 26 10 14 - - -
27/04:30am - - - - - E 22 32 12 17 - - -
27/04:00am - - - - - E 20 30 11 16 - - -
27/03:30am - - - - - ESE 17 20 9 11 - - -
27/03:00am - - - - - SSE 15 17 8 9 - - -
27/02:30am - - - - - S 17 19 9 10 - - -
27/02:00am - - - - - SSE 13 17 7 9 - - -
27/01:30am - - - - - S 13 15 7 8 - - -
27/01:00am - - - - - SSE 11 13 6 7 - - -
27/12:30am - - - - - S 13 17 7 9 - - -
27/12:00am - - - - - S 19 22 10 12 - - -
 
Date/Time
WST
Temp
°C
App
Temp
°C
Dew
Point
°C
Rel
Hum
%
Delta-T
°C
Wind Press
QNH
hPa
Press
MSL
hPa
Rain since
9am
mm
Dir  Spd
km/h
Gust
km/h
Spd
kts
Gust
kts
26/11:30pm - - - - - S 17 20 9 11 - - -
26/11:00pm - - - - - S 19 20 10 11 - - -
26/10:30pm - - - - - S 22 26 12 14 - - -
26/10:00pm - - - - - S 22 30 12 16 - - -
26/09:30pm - - - - - SSW 26 30 14 16 - - -
26/09:00pm - - - - - SSW 24 28 13 15 - - -
26/08:30pm - - - - - SSW 28 32 15 17 - - -
26/08:00pm - - - - - SSW 24 26 13 14 - - -
26/07:30pm - - - - - SSW 30 33 16 18 - - -
26/07:00pm - - - - - SSW 28 33 15 18 - - -
26/06:30pm - - - - - SSW 28 35 15 19 - - -
26/06:00pm - - - - - SSW 32 37 17 20 - - -
26/05:30pm - - - - - SSW 33 39 18 21 - - -
26/05:00pm - - - - - SSW 32 39 17 21 - - -
26/04:30pm - - - - - SSW 32 37 17 20 - - -
26/04:00pm - - - - - SSW 30 41 16 22 - - -
26/03:30pm - - - - - SW 33 41 18 22 - - -
26/03:00pm - - - - - SW 33 43 18 23 - - -
26/02:30pm - - - - - SW 35 43 19 23 - - -
26/02:00pm - - - - - SW 35 46 19 25 - - -
26/01:30pm - - - - - SW 33 41 18 22 - - -
26/01:00pm - - - - - SW 28 33 15 18 - - -
26/12:30pm - - - - - SW 28 33 15 18 - - -
26/12:00pm - - - - - SSW 28 33 15 18 - - -
26/11:30am - - - - - SSW 28 33 15 18 - - -
26/11:00am - - - - - SSW 28 32 15 17 - - -
26/10:30am - - - - - SSW 28 32 15 17 - - -
26/10:00am - - - - - SSW 26 30 14 16 - - -
26/09:30am - - - - - S 17 24 9 13 - - -
26/09:00am - - - - - SSE 11 13 6 7 - - -
26/08:30am - - - - - SSE 13 19 7 10 - - -
26/08:00am - - - - - SE 13 15 7 8 - - -
26/07:30am - - - - - SE 17 19 9 10 - - -
26/07:00am - - - - - SE 17 19 9 10 - - -
26/06:30am - - - - - ESE 17 19 9 10 - - -
26/06:00am - - - - - ESE 19 26 10 14 - - -
26/05:30am - - - - - SE 15 19 8 10 - - -
26/05:00am - - - - - SSE 19 20 10 11 - - -
26/04:30am - - - - - SSE 20 24 11 13 - - -
26/04:00am - - - - - S 19 24 10 13 - - -
26/03:30am - - - - - S 19 22 10 12 - - -
26/03:00am - - - - - S 20 26 11 14 - - -
26/02:30am - - - - - S 22 28 12 15 - - -
26/02:00am - - - - - S 26 32 14 17 - - -
26/01:30am - - - - - S 30 35 16 19 - - -
26/01:00am - - - - - SSW 28 30 15 16 - - -
26/12:30am - - - - - SSW 28 32 15 17 - - -
26/12:00am - - - - - SSW 32 37 17 20 - - -
 
Date/Time
WST
Temp
°C
App
Temp
°C
Dew
Point
°C
Rel
Hum
%
Delta-T
°C
Wind Press
QNH
hPa
Press
MSL
hPa
Rain since
9am
mm
Dir  Spd
km/h
Gust
km/h
Spd
kts
Gust
kts
25/11:30pm - - - - - SSW 32 33 17 18 - - -
25/11:00pm - - - - - SSW 22 30 12 16 - - -
25/10:30pm - - - - - SSW 24 30 13 16 - - -
25/10:00pm - - - - - SSW 32 35 17 19 - - -
25/09:30pm - - - - - SSW 32 35 17 19 - - -

Other formats

Comma delimited format used in spreadsheet applications
http://www.bom.gov.au/fwo/IDW60801/IDW60801.99255.axf

JavaScript Object Notation format (JSON) in row-major order
http://www.bom.gov.au/fwo/IDW60801/IDW60801.99255.json

Data quality

Most of these data are generated automatically and are frequently updated. Quality checks on data are not normally performed. It is possible for incorrect values to appear. Refer to information at About Latest Weather Observations and please check the disclaimer before using these data.